sensor_id;sensor_type;location;lat;lon;timestamp;temperature;humidity
41985;DHT22;28319;48.116;10.818;2023-06-24T00:01:47;18.70;96.50
41985;DHT22;28319;48.116;10.818;2023-06-24T00:06:49;18.60;96.60
41985;DHT22;28319;48.116;10.818;2023-06-24T00:11:53;18.60;96.50
41985;DHT22;28319;48.116;10.818;2023-06-24T00:16:56;18.50;96.60
41985;DHT22;28319;48.116;10.818;2023-06-24T00:21:58;18.50;96.80
41985;DHT22;28319;48.116;10.818;2023-06-24T00:27:04;18.60;96.60
41985;DHT22;28319;48.116;10.818;2023-06-24T00:32:08;18.60;96.60
41985;DHT22;28319;48.116;10.818;2023-06-24T00:37:11;18.60;96.50
41985;DHT22;28319;48.116;10.818;2023-06-24T00:42:12;18.60;96.90
41985;DHT22;28319;48.116;10.818;2023-06-24T00:47:16;18.60;96.80
41985;DHT22;28319;48.116;10.818;2023-06-24T00:52:18;18.60;96.60
41985;DHT22;28319;48.116;10.818;2023-06-24T00:57:21;18.60;96.60
41985;DHT22;28319;48.116;10.818;2023-06-24T01:02:25;18.60;96.20
41985;DHT22;28319;48.116;10.818;2023-06-24T01:07:29;18.50;96.50
41985;DHT22;28319;48.116;10.818;2023-06-24T01:12:33;18.50;96.30
41985;DHT22;28319;48.116;10.818;2023-06-24T01:17:45;18.50;96.20
41985;DHT22;28319;48.116;10.818;2023-06-24T01:29:00;18.50;96.50
41985;DHT22;28319;48.116;10.818;2023-06-24T01:34:18;18.40;96.30
41985;DHT22;28319;48.116;10.818;2023-06-24T01:39:24;18.50;96.20
41985;DHT22;28319;48.116;10.818;2023-06-24T01:44:28;18.40;96.30
41985;DHT22;28319;48.116;10.818;2023-06-24T01:49:33;18.40;96.60
41985;DHT22;28319;48.116;10.818;2023-06-24T01:54:40;18.20;96.60
41985;DHT22;28319;48.116;10.818;2023-06-24T01:59:45;18.40;96.40
41985;DHT22;28319;48.116;10.818;2023-06-24T02:04:50;18.40;97.70
41985;DHT22;28319;48.116;10.818;2023-06-24T02:09:53;18.20;97.30
41985;DHT22;28319;48.116;10.818;2023-06-24T02:14:56;18.30;97.10
41985;DHT22;28319;48.116;10.818;2023-06-24T02:20:01;18.20;98.00
41985;DHT22;28319;48.116;10.818;2023-06-24T02:25:06;17.80;99.70
41985;DHT22;28319;48.116;10.818;2023-06-24T02:30:10;17.70;98.80
41985;DHT22;28319;48.116;10.818;2023-06-24T02:35:14;17.80;99.10
41985;DHT22;28319;48.116;10.818;2023-06-24T02:40:16;17.70;99.90
41985;DHT22;28319;48.116;10.818;2023-06-24T02:45:18;17.50;99.90
41985;DHT22;28319;48.116;10.818;2023-06-24T02:50:23;17.50;99.90
41985;DHT22;28319;48.116;10.818;2023-06-24T02:55:25;17.50;99.60
41985;DHT22;28319;48.116;10.818;2023-06-24T03:00:28;17.60;99.20
41985;DHT22;28319;48.116;10.818;2023-06-24T03:05:36;17.50;99.60
41985;DHT22;28319;48.116;10.818;2023-06-24T03:10:38;17.40;99.90
41985;DHT22;28319;48.116;10.818;2023-06-24T03:15:40;17.10;99.90
41985;DHT22;28319;48.116;10.818;2023-06-24T03:20:43;17.00;99.90
41985;DHT22;28319;48.116;10.818;2023-06-24T03:25:46;17.10;99.90
41985;DHT22;28319;48.116;10.818;2023-06-24T03:30:48;17.00;99.90
41985;DHT22;28319;48.116;10.818;2023-06-24T03:35:52;16.70;99.90
41985;DHT22;28319;48.116;10.818;2023-06-24T03:40:54;16.70;99.90
41985;DHT22;28319;48.116;10.818;2023-06-24T03:45:56;16.70;99.90
41985;DHT22;28319;48.116;10.818;2023-06-24T03:50:59;16.80;99.90
41985;DHT22;28319;48.116;10.818;2023-06-24T03:56:01;16.60;99.90
41985;DHT22;28319;48.116;10.818;2023-06-24T04:01:03;16.70;99.90
41985;DHT22;28319;48.116;10.818;2023-06-24T04:06:07;16.60;99.90
41985;DHT22;28319;48.116;10.818;2023-06-24T04:11:09;16.80;99.90
41985;DHT22;28319;48.116;10.818;2023-06-24T04:16:12;16.90;99.90
41985;DHT22;28319;48.116;10.818;2023-06-24T04:21:15;16.80;99.90
41985;DHT22;28319;48.116;10.818;2023-06-24T04:26:17;16.80;99.90
41985;DHT22;28319;48.116;10.818;2023-06-24T04:31:19;16.80;99.90
41985;DHT22;28319;48.116;10.818;2023-06-24T04:36:23;16.80;99.90
41985;DHT22;28319;48.116;10.818;2023-06-24T04:41:25;16.70;99.90
41985;DHT22;28319;48.116;10.818;2023-06-24T04:46:27;16.90;99.90
41985;DHT22;28319;48.116;10.818;2023-06-24T04:51:30;17.10;99.90
41985;DHT22;28319;48.116;10.818;2023-06-24T04:56:32;17.00;99.90
41985;DHT22;28319;48.116;10.818;2023-06-24T05:01:35;17.00;99.90
41985;DHT22;28319;48.116;10.818;2023-06-24T05:06:38;16.70;99.90
41985;DHT22;28319;48.116;10.818;2023-06-24T05:11:40;16.80;99.90
41985;DHT22;28319;48.116;10.818;2023-06-24T05:16:42;17.00;99.90
41985;DHT22;28319;48.116;10.818;2023-06-24T05:21:47;17.20;99.90
41985;DHT22;28319;48.116;10.818;2023-06-24T05:26:50;17.40;99.90
41985;DHT22;28319;48.116;10.818;2023-06-24T05:31:52;17.40;99.90
41985;DHT22;28319;48.116;10.818;2023-06-24T05:36:56;17.40;99.90
41985;DHT22;28319;48.116;10.818;2023-06-24T05:41:58;17.40;99.90
41985;DHT22;28319;48.116;10.818;2023-06-24T05:47:00;17.30;99.90
41985;DHT22;28319;48.116;10.818;2023-06-24T05:52:05;17.30;99.90
41985;DHT22;28319;48.116;10.818;2023-06-24T05:57:07;17.30;99.90
41985;DHT22;28319;48.116;10.818;2023-06-24T06:02:10;17.30;99.90
41985;DHT22;28319;48.116;10.818;2023-06-24T06:07:14;17.40;99.90
41985;DHT22;28319;48.116;10.818;2023-06-24T06:12:16;17.60;99.90
41985;DHT22;28319;48.116;10.818;2023-06-24T06:17:18;17.60;99.90
41985;DHT22;28319;48.116;10.818;2023-06-24T06:22:21;17.60;99.90
41985;DHT22;28319;48.116;10.818;2023-06-24T06:27:23;17.70;99.90
41985;DHT22;28319;48.116;10.818;2023-06-24T06:32:25;17.80;99.90
41985;DHT22;28319;48.116;10.818;2023-06-24T06:37:29;17.90;99.90
41985;DHT22;28319;48.116;10.818;2023-06-24T06:42:31;18.00;99.90
41985;DHT22;28319;48.116;10.818;2023-06-24T06:47:32;18.00;99.90
41985;DHT22;28319;48.116;10.818;2023-06-24T06:52:36;18.20;99.70
41985;DHT22;28319;48.116;10.818;2023-06-24T06:57:38;18.30;99.70
41985;DHT22;28319;48.116;10.818;2023-06-24T07:02:40;18.40;99.30
41985;DHT22;28319;48.116;10.818;2023-06-24T07:07:44;18.50;98.30
41985;DHT22;28319;48.116;10.818;2023-06-24T07:12:46;18.60;98.00
41985;DHT22;28319;48.116;10.818;2023-06-24T07:17:48;18.80;97.00
41985;DHT22;28319;48.116;10.818;2023-06-24T07:22:51;18.80;96.00
41985;DHT22;28319;48.116;10.818;2023-06-24T07:27:53;19.10;96.20
41985;DHT22;28319;48.116;10.818;2023-06-24T07:32:55;19.10;96.20
41985;DHT22;28319;48.116;10.818;2023-06-24T07:37:58;19.10;95.80
41985;DHT22;28319;48.116;10.818;2023-06-24T07:43:00;19.30;96.20
41985;DHT22;28319;48.116;10.818;2023-06-24T07:48:03;19.40;95.90
41985;DHT22;28319;48.116;10.818;2023-06-24T07:53:06;19.40;95.90
41985;DHT22;28319;48.116;10.818;2023-06-24T07:58:08;19.60;95.60
41985;DHT22;28319;48.116;10.818;2023-06-24T08:03:11;19.90;95.40
41985;DHT22;28319;48.116;10.818;2023-06-24T08:08:14;20.10;94.70
41985;DHT22;28319;48.116;10.818;2023-06-24T08:13:18;20.10;94.70
41985;DHT22;28319;48.116;10.818;2023-06-24T08:18:21;20.20;94.70
41985;DHT22;28319;48.116;10.818;2023-06-24T08:23:24;20.40;94.10
41985;DHT22;28319;48.116;10.818;2023-06-24T08:28:26;20.60;94.00
41985;DHT22;28319;48.116;10.818;2023-06-24T08:33:28;20.60;93.10
41985;DHT22;28319;48.116;10.818;2023-06-24T08:38:31;20.40;93.50
41985;DHT22;28319;48.116;10.818;2023-06-24T08:43:34;20.60;93.90
41985;DHT22;28319;48.116;10.818;2023-06-24T08:48:39;20.70;93.40
41985;DHT22;28319;48.116;10.818;2023-06-24T08:53:43;20.70;93.20
41985;DHT22;28319;48.116;10.818;2023-06-24T08:58:46;20.90;92.90
41985;DHT22;28319;48.116;10.818;2023-06-24T09:03:48;21.10;92.50
41985;DHT22;28319;48.116;10.818;2023-06-24T09:08:54;20.80;92.50
41985;DHT22;28319;48.116;10.818;2023-06-24T09:13:57;21.10;92.30
41985;DHT22;28319;48.116;10.818;2023-06-24T09:18:59;20.90;91.80
41985;DHT22;28319;48.116;10.818;2023-06-24T09:24:04;20.90;92.20
41985;DHT22;28319;48.116;10.818;2023-06-24T09:29:06;21.00;93.00
41985;DHT22;28319;48.116;10.818;2023-06-24T09:34:12;20.90;93.00
41985;DHT22;28319;48.116;10.818;2023-06-24T09:39:16;21.10;93.10
41985;DHT22;28319;48.116;10.818;2023-06-24T09:44:18;21.60;92.80
41985;DHT22;28319;48.116;10.818;2023-06-24T09:49:20;21.60;92.10
41985;DHT22;28319;48.116;10.818;2023-06-24T09:54:25;21.50;91.90
41985;DHT22;28319;48.116;10.818;2023-06-24T09:59:30;21.70;91.70
41985;DHT22;28319;48.116;10.818;2023-06-24T10:04:33;22.00;91.10
41985;DHT22;28319;48.116;10.818;2023-06-24T10:09:38;22.30;91.40
41985;DHT22;28319;48.116;10.818;2023-06-24T10:14:40;21.90;91.10
41985;DHT22;28319;48.116;10.818;2023-06-24T10:19:44;21.40;91.10
41985;DHT22;28319;48.116;10.818;2023-06-24T10:24:48;21.80;91.20
41985;DHT22;28319;48.116;10.818;2023-06-24T10:29:51;21.90;90.50
41985;DHT22;28319;48.116;10.818;2023-06-24T10:34:55;22.30;90.10
41985;DHT22;28319;48.116;10.818;2023-06-24T10:39:59;22.40;88.50
41985;DHT22;28319;48.116;10.818;2023-06-24T10:45:12;22.40;89.40
41985;DHT22;28319;48.116;10.818;2023-06-24T10:50:16;22.40;88.00
41985;DHT22;28319;48.116;10.818;2023-06-24T10:55:19;23.00;87.80
41985;DHT22;28319;48.116;10.818;2023-06-24T11:00:21;22.60;87.30
41985;DHT22;28319;48.116;10.818;2023-06-24T11:05:23;22.40;86.90
41985;DHT22;28319;48.116;10.818;2023-06-24T11:10:27;22.80;87.60
41985;DHT22;28319;48.116;10.818;2023-06-24T11:15:29;23.70;86.30
41985;DHT22;28319;48.116;10.818;2023-06-24T11:20:32;24.30;85.10
41985;DHT22;28319;48.116;10.818;2023-06-24T11:25:39;25.00;82.50
41985;DHT22;28319;48.116;10.818;2023-06-24T11:30:41;24.30;79.30
41985;DHT22;28319;48.116;10.818;2023-06-24T11:35:43;24.00;82.70
41985;DHT22;28319;48.116;10.818;2023-06-24T11:40:48;23.70;78.30
41985;DHT22;28319;48.116;10.818;2023-06-24T11:45:50;24.30;79.10
41985;DHT22;28319;48.116;10.818;2023-06-24T11:50:53;24.80;79.40
41985;DHT22;28319;48.116;10.818;2023-06-24T11:55:57;24.30;77.80
41985;DHT22;28319;48.116;10.818;2023-06-24T12:00:59;23.80;77.30
41985;DHT22;28319;48.116;10.818;2023-06-24T12:06:01;23.70;79.10
41985;DHT22;28319;48.116;10.818;2023-06-24T12:11:04;23.60;78.30
41985;DHT22;28319;48.116;10.818;2023-06-24T12:16:06;24.00;78.40
41985;DHT22;28319;48.116;10.818;2023-06-24T12:21:08;24.90;78.30
41985;DHT22;28319;48.116;10.818;2023-06-24T12:26:12;25.40;76.70
41985;DHT22;28319;48.116;10.818;2023-06-24T12:31:14;26.00;76.80
41985;DHT22;28319;48.116;10.818;2023-06-24T12:36:17;25.20;75.00
41985;DHT22;28319;48.116;10.818;2023-06-24T12:41:20;25.40;73.70
41985;DHT22;28319;48.116;10.818;2023-06-24T12:46:22;26.10;73.10
41985;DHT22;28319;48.116;10.818;2023-06-24T12:51:24;26.10;73.80
41985;DHT22;28319;48.116;10.818;2023-06-24T12:56:28;27.00;71.30
41985;DHT22;28319;48.116;10.818;2023-06-24T13:01:30;27.50;71.70
41985;DHT22;28319;48.116;10.818;2023-06-24T13:06:32;27.30;68.40
41985;DHT22;28319;48.116;10.818;2023-06-24T13:11:36;26.00;71.30
41985;DHT22;28319;48.116;10.818;2023-06-24T13:16:39;25.80;71.50
41985;DHT22;28319;48.116;10.818;2023-06-24T13:21:43;25.90;68.30
41985;DHT22;28319;48.116;10.818;2023-06-24T13:26:46;26.40;68.90
41985;DHT22;28319;48.116;10.818;2023-06-24T13:31:48;26.80;69.00
41985;DHT22;28319;48.116;10.818;2023-06-24T13:36:50;27.10;68.30
41985;DHT22;28319;48.116;10.818;2023-06-24T13:41:55;27.50;68.70
41985;DHT22;28319;48.116;10.818;2023-06-24T13:46:57;26.60;68.30
41985;DHT22;28319;48.116;10.818;2023-06-24T13:51:59;26.20;69.30
41985;DHT22;28319;48.116;10.818;2023-06-24T13:57:03;26.40;68.30
41985;DHT22;28319;48.116;10.818;2023-06-24T14:02:05;26.70;67.30
41985;DHT22;28319;48.116;10.818;2023-06-24T14:07:08;27.00;69.30
41985;DHT22;28319;48.116;10.818;2023-06-24T14:12:12;27.30;66.40
41985;DHT22;28319;48.116;10.818;2023-06-24T14:17:14;27.10;66.90
41985;DHT22;28319;48.116;10.818;2023-06-24T14:22:16;27.00;67.30
41985;DHT22;28319;48.116;10.818;2023-06-24T14:27:20;27.20;64.80
41985;DHT22;28319;48.116;10.818;2023-06-24T14:32:22;27.00;64.40
41985;DHT22;28319;48.116;10.818;2023-06-24T14:37:24;26.70;64.90
41985;DHT22;28319;48.116;10.818;2023-06-24T14:42:28;26.20;67.30
41985;DHT22;28319;48.116;10.818;2023-06-24T14:47:30;25.20;67.30
41985;DHT22;28319;48.116;10.818;2023-06-24T14:52:32;25.80;66.70
41985;DHT22;28319;48.116;10.818;2023-06-24T14:57:36;26.20;65.90
41985;DHT22;28319;48.116;10.818;2023-06-24T15:02:39;26.20;66.10
41985;DHT22;28319;48.116;10.818;2023-06-24T15:07:41;26.10;65.30
41985;DHT22;28319;48.116;10.818;2023-06-24T15:12:44;25.90;65.50
41985;DHT22;28319;48.116;10.818;2023-06-24T15:17:46;26.30;67.30
41985;DHT22;28319;48.116;10.818;2023-06-24T15:22:48;26.20;64.20
41985;DHT22;28319;48.116;10.818;2023-06-24T15:27:51;26.00;64.00
41985;DHT22;28319;48.116;10.818;2023-06-24T15:32:54;25.60;65.60
41985;DHT22;28319;48.116;10.818;2023-06-24T15:37:56;25.60;66.60
41985;DHT22;28319;48.116;10.818;2023-06-24T15:43:00;25.70;66.40
41985;DHT22;28319;48.116;10.818;2023-06-24T15:48:05;25.60;65.60
41985;DHT22;28319;48.116;10.818;2023-06-24T15:53:07;25.60;65.30
41985;DHT22;28319;48.116;10.818;2023-06-24T15:58:11;25.50;65.70
41985;DHT22;28319;48.116;10.818;2023-06-24T16:03:13;25.50;67.00
41985;DHT22;28319;48.116;10.818;2023-06-24T16:08:15;25.60;66.40
41985;DHT22;28319;48.116;10.818;2023-06-24T16:13:19;25.60;67.30
41985;DHT22;28319;48.116;10.818;2023-06-24T16:18:21;25.50;66.60
41985;DHT22;28319;48.116;10.818;2023-06-24T16:23:23;25.30;66.60
41985;DHT22;28319;48.116;10.818;2023-06-24T16:28:27;25.30;66.50
41985;DHT22;28319;48.116;10.818;2023-06-24T16:33:29;25.00;67.50
41985;DHT22;28319;48.116;10.818;2023-06-24T16:38:31;24.90;68.10
41985;DHT22;28319;48.116;10.818;2023-06-24T16:43:34;24.80;66.80
41985;DHT22;28319;48.116;10.818;2023-06-24T16:48:37;24.70;68.00
41985;DHT22;28319;48.116;10.818;2023-06-24T16:53:39;24.70;68.70
41985;DHT22;28319;48.116;10.818;2023-06-24T16:58:42;24.70;68.00
41985;DHT22;28319;48.116;10.818;2023-06-24T17:03:45;24.80;68.50
41985;DHT22;28319;48.116;10.818;2023-06-24T17:08:47;24.70;68.40
41985;DHT22;28319;48.116;10.818;2023-06-24T17:13:50;24.70;68.70
41985;DHT22;28319;48.116;10.818;2023-06-24T17:18:52;24.60;69.00
41985;DHT22;28319;48.116;10.818;2023-06-24T17:23:54;24.40;69.60
41985;DHT22;28319;48.116;10.818;2023-06-24T17:28:57;24.50;69.90
41985;DHT22;28319;48.116;10.818;2023-06-24T17:33:59;24.50;69.70
41985;DHT22;28319;48.116;10.818;2023-06-24T17:39:01;24.50;69.60
41985;DHT22;28319;48.116;10.818;2023-06-24T17:44:05;24.50;69.40
41985;DHT22;28319;48.116;10.818;2023-06-24T17:49:07;24.30;68.90
41985;DHT22;28319;48.116;10.818;2023-06-24T17:54:09;24.10;69.10
41985;DHT22;28319;48.116;10.818;2023-06-24T17:59:12;24.00;68.90
41985;DHT22;28319;48.116;10.818;2023-06-24T18:04:14;24.10;69.90
41985;DHT22;28319;48.116;10.818;2023-06-24T18:09:16;23.90;70.70
41985;DHT22;28319;48.116;10.818;2023-06-24T18:14:21;23.80;71.80
41985;DHT22;28319;48.116;10.818;2023-06-24T18:19:23;23.80;72.20
41985;DHT22;28319;48.116;10.818;2023-06-24T18:24:26;23.80;72.60
41985;DHT22;28319;48.116;10.818;2023-06-24T18:29:29;23.80;72.60
41985;DHT22;28319;48.116;10.818;2023-06-24T18:34:31;23.70;72.70
41985;DHT22;28319;48.116;10.818;2023-06-24T18:39:34;23.60;72.90
41985;DHT22;28319;48.116;10.818;2023-06-24T18:44:37;23.50;73.90
41985;DHT22;28319;48.116;10.818;2023-06-24T18:49:39;23.50;74.90
41985;DHT22;28319;48.116;10.818;2023-06-24T18:54:42;23.50;75.60
41985;DHT22;28319;48.116;10.818;2023-06-24T18:59:46;23.60;75.20
41985;DHT22;28319;48.116;10.818;2023-06-24T19:04:47;23.60;75.80
41985;DHT22;28319;48.116;10.818;2023-06-24T19:09:49;23.70;77.90
41985;DHT22;28319;48.116;10.818;2023-06-24T19:14:53;23.60;76.00
41985;DHT22;28319;48.116;10.818;2023-06-24T19:19:55;23.60;77.20
41985;DHT22;28319;48.116;10.818;2023-06-24T19:24:57;23.60;77.40
41985;DHT22;28319;48.116;10.818;2023-06-24T19:30:00;23.50;77.10
41985;DHT22;28319;48.116;10.818;2023-06-24T19:35:03;23.40;77.40
41985;DHT22;28319;48.116;10.818;2023-06-24T19:40:06;23.30;77.10
41985;DHT22;28319;48.116;10.818;2023-06-24T19:45:10;23.10;79.50
41985;DHT22;28319;48.116;10.818;2023-06-24T19:50:12;23.00;78.00
41985;DHT22;28319;48.116;10.818;2023-06-24T19:55:15;22.90;79.70
41985;DHT22;28319;48.116;10.818;2023-06-24T20:00:18;22.90;79.80
41985;DHT22;28319;48.116;10.818;2023-06-24T20:05:21;22.80;80.40
41985;DHT22;28319;48.116;10.818;2023-06-24T20:10:23;22.80;80.60
41985;DHT22;28319;48.116;10.818;2023-06-24T20:15:26;22.70;80.80
41985;DHT22;28319;48.116;10.818;2023-06-24T20:20:28;22.40;80.50
41985;DHT22;28319;48.116;10.818;2023-06-24T20:25:30;22.30;81.20
41985;DHT22;28319;48.116;10.818;2023-06-24T20:30:34;22.30;81.30
41985;DHT22;28319;48.116;10.818;2023-06-24T20:35:37;22.00;81.30
41985;DHT22;28319;48.116;10.818;2023-06-24T20:40:39;21.80;82.00
41985;DHT22;28319;48.116;10.818;2023-06-24T20:45:42;21.70;81.90
41985;DHT22;28319;48.116;10.818;2023-06-24T20:50:44;21.60;82.60
41985;DHT22;28319;48.116;10.818;2023-06-24T20:55:46;21.30;82.80
41985;DHT22;28319;48.116;10.818;2023-06-24T21:00:50;21.10;82.80
41985;DHT22;28319;48.116;10.818;2023-06-24T21:05:52;21.00;83.40
41985;DHT22;28319;48.116;10.818;2023-06-24T21:10:54;21.00;83.60
41985;DHT22;28319;48.116;10.818;2023-06-24T21:15:57;20.90;83.80
41985;DHT22;28319;48.116;10.818;2023-06-24T21:20:59;20.80;83.40
41985;DHT22;28319;48.116;10.818;2023-06-24T21:26:01;20.70;83.80
41985;DHT22;28319;48.116;10.818;2023-06-24T21:31:05;20.60;84.30
41985;DHT22;28319;48.116;10.818;2023-06-24T21:36:07;20.60;84.10
41985;DHT22;28319;48.116;10.818;2023-06-24T21:41:09;20.50;84.50
41985;DHT22;28319;48.116;10.818;2023-06-24T21:46:13;20.40;84.80
41985;DHT22;28319;48.116;10.818;2023-06-24T21:51:15;20.20;85.00
41985;DHT22;28319;48.116;10.818;2023-06-24T21:56:17;20.10;85.30
41985;DHT22;28319;48.116;10.818;2023-06-24T22:01:20;19.90;85.50
41985;DHT22;28319;48.116;10.818;2023-06-24T22:06:22;19.80;86.10
41985;DHT22;28319;48.116;10.818;2023-06-24T22:11:25;19.80;86.20
41985;DHT22;28319;48.116;10.818;2023-06-24T22:16:28;19.60;86.40
41985;DHT22;28319;48.116;10.818;2023-06-24T22:21:30;19.60;86.30
41985;DHT22;28319;48.116;10.818;2023-06-24T22:26:32;19.60;86.50
41985;DHT22;28319;48.116;10.818;2023-06-24T22:31:36;19.50;86.50
41985;DHT22;28319;48.116;10.818;2023-06-24T22:36:38;19.40;86.60
41985;DHT22;28319;48.116;10.818;2023-06-24T22:41:40;19.30;87.10
41985;DHT22;28319;48.116;10.818;2023-06-24T22:46:43;19.20;87.10
41985;DHT22;28319;48.116;10.818;2023-06-24T22:51:45;19.20;87.50
41985;DHT22;28319;48.116;10.818;2023-06-24T22:56:47;19.10;87.00
41985;DHT22;28319;48.116;10.818;2023-06-24T23:01:51;19.00;87.40
41985;DHT22;28319;48.116;10.818;2023-06-24T23:06:54;18.90;87.30
41985;DHT22;28319;48.116;10.818;2023-06-24T23:11:57;18.90;88.20
41985;DHT22;28319;48.116;10.818;2023-06-24T23:17:01;18.80;87.90
41985;DHT22;28319;48.116;10.818;2023-06-24T23:22:04;18.70;88.10
41985;DHT22;28319;48.116;10.818;2023-06-24T23:27:07;18.60;87.70
41985;DHT22;28319;48.116;10.818;2023-06-24T23:32:12;18.70;87.70
41985;DHT22;28319;48.116;10.818;2023-06-24T23:37:14;18.50;88.90
41985;DHT22;28319;48.116;10.818;2023-06-24T23:42:17;18.40;89.00
41985;DHT22;28319;48.116;10.818;2023-06-24T23:47:21;18.40;89.20
41985;DHT22;28319;48.116;10.818;2023-06-24T23:52:23;18.40;88.60
41985;DHT22;28319;48.116;10.818;2023-06-24T23:57:25;18.30;89.60
